Time;durP1;ratioP1;P1;durP2;ratioP2;P2;SDS_P1;SDS_P2;PMS_P1;PMS_P2;Temp;Humidity;BMP_temperature;BMP_pressure;BME280_temperature;BME280_humidity;BME280_pressure;Samples;Min_cycle;Max_cycle;Signal;HPM_P1;HPM_P2
2024/01/23 00:00:37;;;;;;;8.48;1.88;;;;;;;7.20;79.30;100919.47;5035852;28;20128;-70
2024/01/23 00:03:56;;;;;;;;;;;;;;;7.08;80.30;100925.06;5036213;28;20080;-70
2024/01/23 00:07:24;;;;;;;13.23;2.22;;;;;;;7.09;80.11;100929.41;5045210;28;20005;-71
2024/01/23 00:10:51;;;;;;;8.57;1.45;;;;;;;7.11;81.15;100932.78;5035530;28;20088;-71
2024/01/23 00:14:12;;;;;;;13.95;3.55;;;;;;;7.09;81.50;100926.78;5035549;28;20048;-71
2024/01/23 00:17:31;;;;;;;11.75;2.65;;;;;;;6.94;82.41;100932.47;5035546;28;20056;-71
2024/01/23 00:20:53;;;;;;;11.07;3.40;;;;;;;7.05;82.20;100933.00;5035627;28;20080;-70
2024/01/23 00:24:19;;;;;;;10.57;2.10;;;;;;;6.98;83.04;100916.72;5035613;28;20099;-70
2024/01/23 00:27:53;;;;;;;10.82;3.15;;;;;;;7.01;82.37;100920.97;5035398;28;20060;-70
2024/01/23 00:31:28;;;;;;;9.77;2.22;;;;;;;7.08;82.14;100914.66;5035073;28;20465;-71
2024/01/23 00:34:52;;;;;;;12.55;2.80;;;;;;;7.03;82.24;100913.97;5035182;28;20403;-70
2024/01/23 00:38:12;;;;;;;9.73;2.05;;;;;;;6.96;82.07;100918.53;5035098;28;20731;-70
2024/01/23 00:41:34;;;;;;;16.42;3.53;;;;;;;6.98;81.68;100921.91;5035070;28;20035;-71
2024/01/23 00:45:11;;;;;;;13.20;2.70;;;;;;;7.07;81.25;100904.31;5035018;28;20049;-71
2024/01/23 00:48:38;;;;;;;9.80;2.67;;;;;;;7.03;80.90;100932.19;5034590;28;20095;-71
2024/01/23 00:51:58;;;;;;;12.23;2.67;;;;;;;7.04;80.16;100941.69;5034746;28;20458;-71
2024/01/23 00:55:24;;;;;;;12.15;2.60;;;;;;;7.02;80.18;100953.00;5035053;28;20099;-71
2024/01/23 00:58:54;;;;;;;14.65;3.75;;;;;;;7.03;79.85;100973.78;5033759;28;20048;-70
2024/01/23 01:02:09;;;;;;;14.77;3.80;;;;;;;7.05;79.33;100971.13;5034868;28;20099;-70
2024/01/23 01:05:14;;;;;;;15.70;3.58;;;;;;;7.05;79.39;100960.72;5034619;28;20046;-71
2024/01/23 01:08:21;;;;;;;11.32;2.60;;;;;;;7.03;79.51;100960.78;5034456;28;20043;-71
2024/01/23 01:11:28;;;;;;;15.25;3.33;;;;;;;7.04;79.35;100980.69;5034617;28;20457;-71
2024/01/23 01:14:42;;;;;;;15.55;3.33;;;;;;;7.08;78.49;101003.06;5034347;28;20439;-71
2024/01/23 01:18:02;;;;;;;16.30;4.10;;;;;;;7.14;78.35;100984.69;5034338;28;20415;-71
2024/01/23 01:21:24;;;;;;;12.82;2.63;;;;;;;7.12;78.40;101007.31;5034319;28;20080;-70
2024/01/23 01:24:53;;;;;;;14.05;3.22;;;;;;;7.12;79.77;100996.91;5034378;28;20056;-70
2024/01/23 01:28:19;;;;;;;14.27;3.80;;;;;;;7.03;79.84;100997.19;5034149;28;20120;-71
2024/01/23 01:31:39;;;;;;;17.25;4.65;;;;;;;7.02;79.98;101010.22;5034160;28;20127;-71
2024/01/23 01:35:06;;;;;;;13.88;2.72;;;;;;;7.04;79.48;101003.22;5034310;28;20071;-70
2024/01/23 01:38:29;;;;;;;15.60;3.17;;;;;;;6.96;79.78;101013.88;5033926;28;20041;-71
2024/01/23 01:41:55;;;;;;;13.85;3.85;;;;;;;6.95;79.48;101006.94;5034140;28;20060;-71
2024/01/23 01:45:16;;;;;;;12.23;2.92;;;;;;;6.92;79.98;101014.84;5034112;28;20095;-70
2024/01/23 01:48:30;;;;;;;13.93;2.83;;;;;;;6.95;79.41;101009.53;5033833;28;20052;-71
2024/01/23 01:51:58;;;;;;;14.00;3.42;;;;;;;6.89;79.55;101040.91;5033702;28;20071;-70
2024/01/23 01:55:12;;;;;;;11.00;4.60;;;;;;;6.83;80.16;101033.28;5033603;28;20064;-70
2024/01/23 01:58:42;;;;;;;17.23;3.30;;;;;;;6.82;80.25;101022.06;5032392;28;20132;-71
2024/01/23 02:02:17;;;;;;;22.63;4.72;;;;;;;6.82;79.18;101032.44;5033776;28;20510;-70
2024/01/23 02:05:46;;;;;;;12.70;2.63;;;;;;;6.93;78.24;101043.41;5033460;28;20071;-70
2024/01/23 02:09:14;;;;;;;10.68;2.67;;;;;;;6.91;78.28;101050.38;5033323;28;20087;-70
2024/01/23 02:12:46;;;;;;;11.00;2.30;;;;;;;6.88;78.73;101034.88;5033267;28;20068;-70
2024/01/23 02:16:23;;;;;;;15.15;4.53;;;;;;;6.86;78.94;101043.59;5033249;28;20138;-70
2024/01/23 02:19:50;;;;;;;14.10;3.33;;;;;;;6.87;78.92;101077.38;5033222;28;20052;-70
2024/01/23 02:23:24;;;;;;;15.15;3.45;;;;;;;6.88;79.12;101057.41;5033048;28;20099;-70
2024/01/23 02:26:39;;;;;;;11.40;2.20;;;;;;;6.85;79.40;101060.94;5033384;28;20191;-70
2024/01/23 02:30:11;;;;;;;14.20;3.47;;;;;;;6.84;79.47;101053.22;5033017;28;20130;-70
2024/01/23 02:33:22;;;;;;;11.82;2.85;;;;;;;6.84;79.95;101066.22;5033308;28;20052;-70
2024/01/23 02:36:42;;;;;;;11.50;2.30;;;;;;;6.81;79.37;101066.28;5032934;28;20044;-70
2024/01/23 02:40:10;;;;;;;10.77;2.50;;;;;;;6.79;79.67;101075.88;5032990;28;20115;-70
2024/01/23 02:43:37;;;;;;;13.75;2.85;;;;;;;6.79;79.20;101091.47;5032859;28;20454;-71
2024/01/23 02:47:04;;;;;;;15.55;4.38;;;;;;;6.73;79.16;101087.28;5032858;28;20565;-70
2024/01/23 02:50:31;;;;;;;12.65;2.42;;;;;;;6.70;78.57;101118.56;5032805;28;20090;-71
2024/01/23 02:54:04;;;;;;;13.38;2.28;;;;;;;6.75;77.43;101114.09;5032955;28;20103;-70
2024/01/23 02:57:29;;;;;;;7.03;1.85;;;;;;;6.77;76.60;101134.84;5032548;28;20581;-70
2024/01/23 03:00:50;;;;;;;13.52;3.55;;;;;;;6.79;76.15;101133.06;5032924;28;20047;-70
2024/01/23 03:04:09;;;;;;;11.13;2.05;;;;;;;6.81;75.70;101131.28;5032643;28;20088;-70
2024/01/23 03:07:19;;;;;;;15.65;2.80;;;;;;;6.85;75.63;101156.28;5032633;28;20477;-70
2024/01/23 03:10:34;;;;;;;16.30;2.60;;;;;;;6.85;74.67;101140.69;5034530;28;20063;-71
2024/01/23 03:13:57;;;;;;;10.50;2.20;;;;;;;6.81;76.06;101152.06;5056442;28;20100;-71
2024/01/23 03:17:16;;;;;;;14.18;3.20;;;;;;;6.72;77.23;101159.19;5036866;28;20064;-71
2024/01/23 03:20:39;;;;;;;13.68;2.63;;;;;;;6.72;78.37;101168.75;5036538;28;20414;-71
2024/01/23 03:23:58;;;;;;;10.57;3.08;;;;;;;6.66;78.88;101161.13;5036393;28;20127;-71
2024/01/23 03:27:27;;;;;;;13.63;2.70;;;;;;;6.60;78.57;101162.13;5036465;28;20556;-71
2024/01/23 03:30:49;;;;;;;9.30;1.95;;;;;;;6.60;78.04;101169.06;5036379;28;20047;-71
2024/01/23 03:34:10;;;;;;;12.93;2.55;;;;;;;6.58;77.56;101184.72;5036342;28;20080;-71
2024/01/23 03:37:31;;;;;;;13.57;3.17;;;;;;;6.54;78.95;101198.69;5036184;28;20052;-70
2024/01/23 03:41:01;;;;;;;13.05;2.47;;;;;;;6.55;80.71;101181.34;5036064;28;20084;-71
2024/01/23 03:44:31;;;;;;;8.32;1.75;;;;;;;6.49;80.29;101192.72;5036121;28;20044;-70
2024/01/23 03:47:57;;;;;;;9.18;2.08;;;;;;;6.47;79.81;101205.75;5036078;28;20103;-71
2024/01/23 03:51:22;;;;;;;12.20;2.30;;;;;;;6.47;79.30;101218.72;5036200;28;20403;-70
2024/01/23 03:54:47;;;;;;;14.20;1.90;;;;;;;6.46;78.79;101229.16;5035967;28;20067;-70
2024/01/23 03:58:15;;;;;;;9.57;1.95;;;;;;;6.47;78.38;101236.06;5035633;28;20060;-71
2024/01/23 04:01:39;;;;;;;10.70;1.95;;;;;;;6.46;77.59;101253.41;5035798;28;20036;-70
2024/01/23 04:05:07;;;;;;;7.50;2.05;;;;;;;6.43;75.97;101250.03;5035885;28;20044;-70
2024/01/23 04:08:25;;;;;;;10.88;1.73;;;;;;;6.44;75.84;101251.72;5035592;28;20103;-70
2024/01/23 04:11:49;;;;;;;9.63;1.63;;;;;;;6.47;76.32;101259.44;5035594;28;20047;-71
2024/01/23 04:15:17;;;;;;;12.57;2.22;;;;;;;6.42;75.11;101263.91;5035569;28;20072;-71
2024/01/23 04:18:35;;;;;;;8.07;1.45;;;;;;;6.45;74.10;101254.31;5035506;28;20183;-71
2024/01/23 04:21:58;;;;;;;11.52;2.08;;;;;;;6.37;74.76;101257.97;5034423;28;20107;-71
2024/01/23 04:25:04;;;;;;;11.63;2.03;;;;;;;6.34;73.89;101265.81;5035368;28;20044;-71
2024/01/23 04:28:20;;;;;;;7.15;1.58;;;;;;;6.33;73.89;101275.38;5035321;28;20123;-70
2024/01/23 04:31:43;;;;;;;13.52;2.95;;;;;;;6.37;73.70;101271.78;5035065;28;20048;-70
2024/01/23 04:35:12;;;;;;;10.73;2.25;;;;;;;6.30;74.43;101301.41;5035216;28;20407;-70
2024/01/23 04:38:28;;;;;;;9.23;1.83;;;;;;;6.25;75.38;101306.72;5035079;28;20049;-71
2024/01/23 04:41:45;;;;;;;16.73;2.78;;;;;;;6.17;76.02;101308.59;5035096;28;20068;-70
2024/01/23 04:45:07;;;;;;;13.15;2.28;;;;;;;6.21;76.21;101318.03;5035327;28;20048;-70
2024/01/23 04:48:19;;;;;;;11.38;2.22;;;;;;;6.14;77.55;101319.06;5034973;28;20071;-69
2024/01/23 04:51:32;;;;;;;15.45;4.68;;;;;;;6.15;77.91;101328.53;5034697;28;20675;-70
2024/01/23 04:54:50;;;;;;;16.60;4.95;;;;;;;6.09;78.80;101356.38;5035027;28;20051;-71
2024/01/23 04:58:14;;;;;;;15.43;4.60;;;;;;;6.02;79.15;101355.66;5034525;28;20092;-69
2024/01/23 05:01:26;;;;;;;17.83;3.47;;;;;;;5.99;79.80;101359.16;5034659;28;20111;-71
2024/01/23 05:04:33;;;;;;;12.85;2.58;;;;;;;5.88;80.51;101360.25;5034684;28;20576;-74
2024/01/23 05:07:44;;;;;;;12.18;2.88;;;;;;;5.86;81.17;101362.00;5034782;28;20045;-72
2024/01/23 05:10:51;;;;;;;13.95;3.75;;;;;;;5.80;81.83;101368.16;5034475;28;20076;-72
2024/01/23 05:14:04;;;;;;;16.02;2.90;;;;;;;5.77;81.81;101382.03;5041829;28;20191;-71
2024/01/23 05:17:30;;;;;;;13.55;2.47;;;;;;;5.73;82.24;101393.38;5053195;28;20052;-71
2024/01/23 05:20:44;;;;;;;19.13;3.38;;;;;;;5.78;81.66;101396.75;5045174;28;20040;-71
2024/01/23 05:23:51;;;;;;;16.67;4.25;;;;;;;5.83;81.73;101410.47;5053621;28;20039;-71
2024/01/23 05:27:10;;;;;;;19.85;3.47;;;;;;;5.85;81.78;101407.03;5053780;28;20048;-70
2024/01/23 05:30:18;;;;;;;18.73;4.00;;;;;;;5.76;82.20;101416.69;5053691;28;20509;-71
2024/01/23 05:33:28;;;;;;;11.00;2.10;;;;;;;5.82;82.65;101436.47;5053366;28;20410;-70
2024/01/23 05:36:35;;;;;;;10.18;2.10;;;;;;;5.75;82.95;101438.31;5053693;28;20039;-70
2024/01/23 05:39:41;;;;;;;13.60;2.70;;;;;;;5.70;nan;101442.72;5053843;28;20047;-70
2024/01/23 05:42:46;;;;;;;13.05;2.92;;;;;;;5.49;85.01;101446.56;5053632;28;20044;-70
2024/01/23 05:45:54;;;;;;;17.75;3.88;;;;;;;5.54;85.15;101449.06;5053110;28;20146;-71
2024/01/23 05:48:59;;;;;;;18.00;3.95;;;;;;;5.42;84.35;101451.84;5052770;28;20113;-71
2024/01/23 05:52:05;;;;;;;13.50;2.80;;;;;;;5.50;86.49;101460.38;5032746;28;20435;-67
2024/01/23 05:55:14;;;;;;;12.65;3.35;;;;;;;5.52;85.89;101472.47;5033560;28;20048;-67
2024/01/23 05:58:19;;;;;;;21.52;5.13;;;;;;;5.47;84.27;101478.59;5052226;28;20126;-71
2024/01/23 06:01:37;;;;;;;13.60;3.28;;;;;;;5.57;83.70;101487.94;5053111;28;20064;-71
2024/01/23 06:05:06;;;;;;;13.27;3.28;;;;;;;5.61;83.03;101487.00;5052952;28;20190;-71
2024/01/23 06:08:24;;;;;;;14.95;2.47;;;;;;;5.48;83.15;101490.66;5053596;28;20509;-70
2024/01/23 06:11:35;;;;;;;14.52;2.67;;;;;;;5.55;82.82;101497.47;5053101;28;20102;-70
2024/01/23 06:14:41;;;;;;;15.38;3.05;;;;;;;5.59;82.67;101502.59;5053265;28;20094;-70
2024/01/23 06:18:07;;;;;;;14.20;2.85;;;;;;;5.46;82.77;101513.19;5053194;28;20581;-70
2024/01/23 06:21:35;;;;;;;15.52;2.45;;;;;;;5.54;82.50;101524.31;5053099;28;20518;-68
2024/01/23 06:25:03;;;;;;;18.70;2.70;;;;;;;5.53;82.59;101527.78;5053137;28;20056;-70
2024/01/23 06:28:24;;;;;;;17.83;3.28;;;;;;;5.54;82.61;101537.28;5053051;28;20043;-70
2024/01/23 06:31:43;;;;;;;16.00;2.72;;;;;;;5.47;83.36;101541.69;5052945;28;20061;-67
2024/01/23 06:35:12;;;;;;;21.80;3.05;;;;;;;5.50;82.98;101548.59;5052939;28;20107;-68
2024/01/23 06:38:41;;;;;;;12.60;3.70;;;;;;;5.47;83.05;101554.66;5052795;28;20107;-69
2024/01/23 06:42:06;;;;;;;16.75;2.50;;;;;;;5.43;83.34;101567.72;5052834;28;20063;-69
2024/01/23 06:45:20;;;;;;;21.60;3.50;;;;;;;5.41;83.66;101577.25;5052194;28;20055;-69
2024/01/23 06:48:31;;;;;;;13.95;2.90;;;;;;;5.40;83.40;101568.59;5052731;28;20047;-69
2024/01/23 06:51:48;;;;;;;16.92;3.45;;;;;;;5.36;84.00;101580.78;5052584;28;20094;-69
2024/01/23 06:55:17;;;;;;;20.55;3.58;;;;;;;5.31;84.00;101577.38;5052667;28;20126;-67
2024/01/23 06:58:35;;;;;;;16.55;2.75;;;;;;;5.32;84.52;101576.47;5052341;28;20083;-69
2024/01/23 07:01:54;;;;;;;13.75;2.67;;;;;;;5.33;84.37;101573.03;5052507;28;20052;-71
2024/01/23 07:05:14;;;;;;;15.45;2.90;;;;;;;5.30;84.69;101580.00;5052608;28;20557;-70
2024/01/23 07:08:43;;;;;;;18.10;3.33;;;;;;;5.32;84.88;101594.63;5051831;28;20086;-69
2024/01/23 07:12:02;;;;;;;;;;;;;;;5.40;84.43;101601.47;5050915;28;20090;-69
2024/01/23 07:15:21;;;;;;;18.27;3.37;;;;;;;5.34;84.69;101612.78;5051035;28;19942;-69
2024/01/23 07:18:51;;;;;;;17.65;3.58;;;;;;;5.42;84.38;101621.31;5050955;28;20064;-69
2024/01/23 07:22:04;;;;;;;16.00;3.10;;;;;;;5.30;84.23;101619.75;5050944;28;20099;-69
2024/01/23 07:25:09;;;;;;;14.05;3.22;;;;;;;5.12;84.57;101635.53;5051238;28;20110;-69
2024/01/23 07:28:13;;;;;;;16.05;2.88;;;;;;;5.06;85.11;101643.38;5051158;28;20468;-70
2024/01/23 07:31:17;;;;;;;14.00;3.08;;;;;;;4.96;84.65;101654.72;5051074;28;20505;-69
2024/01/23 07:34:21;;;;;;;12.68;3.10;;;;;;;4.76;85.10;101660.97;5051335;28;20410;-70
2024/01/23 07:37:25;;;;;;;15.48;2.70;;;;;;;4.70;84.67;101663.63;5051275;28;20106;-71
2024/01/23 07:40:29;;;;;;;9.48;2.33;;;;;;;4.55;85.54;101671.53;5050795;28;20044;-70
2024/01/23 07:43:43;;;;;;;15.85;2.90;;;;;;;4.38;85.67;101675.13;5050525;28;20040;-70
2024/01/23 07:46:55;;;;;;;15.70;3.58;;;;;;;4.33;86.13;101674.31;5049714;28;20051;-69
2024/01/23 07:50:03;;;;;;;15.60;2.92;;;;;;;4.17;86.32;101676.16;5049899;28;20110;-71
2024/01/23 07:53:16;;;;;;;13.88;3.45;;;;;;;4.15;86.66;101682.25;5050803;28;20095;-73
2024/01/23 07:56:33;;;;;;;12.97;3.60;;;;;;;3.51;89.76;101686.06;5052573;28;20094;-73
2024/01/23 07:59:59;;;;;;;15.45;2.47;;;;;;;3.76;88.93;101689.34;5034451;28;20110;-71
2024/01/23 08:03:25;;;;;;;9.70;2.30;;;;;;;3.84;88.11;101690.19;5034388;28;20048;-71
2024/01/23 08:06:54;;;;;;;10.15;2.60;;;;;;;3.65;87.60;101696.31;5023462;28;20045;-70
2024/01/23 08:10:21;;;;;;;11.63;3.92;;;;;;;3.46;89.44;101709.34;5034083;28;20577;-71
2024/01/23 08:13:40;;;;;;;23.00;5.95;;;;;;;3.78;89.58;101707.47;5034124;28;20060;-70
2024/01/23 08:16:46;;;;;;;39.70;9.07;;;;;;;3.75;87.83;101710.94;5033951;28;20095;-70
2024/01/23 08:19:53;;;;;;;12.73;3.90;;;;;;;3.63;88.09;101708.41;5033996;28;20135;-70
2024/01/23 08:23:01;;;;;;;15.10;4.50;;;;;;;3.50;88.64;101718.78;5033979;28;20045;-70
2024/01/23 08:26:08;;;;;;;17.40;6.22;;;;;;;3.64;88.65;101708.41;5033801;28;20176;-71
2024/01/23 08:29:15;;;;;;;16.55;7.45;;;;;;;3.78;89.08;101729.03;5033905;28;20526;-70
2024/01/23 08:32:22;;;;;;;16.80;4.35;;;;;;;4.11;88.91;101727.09;5034008;28;20412;-70
2024/01/23 08:35:29;;;;;;;14.90;3.40;;;;;;;4.24;87.14;101725.31;5033613;28;20048;-70
2024/01/23 08:38:51;;;;;;;14.88;3.70;;;;;;;4.36;86.34;101744.19;5033692;28;20068;-70
2024/01/23 08:42:25;;;;;;;19.50;3.85;;;;;;;4.73;85.39;101743.94;5033473;28;20750;-70
2024/01/23 08:45:47;;;;;;;16.60;3.53;;;;;;;4.85;84.23;101756.78;5033534;28;20107;-71
2024/01/23 08:49:12;;;;;;;14.23;3.17;;;;;;;4.94;83.17;101754.97;5032615;28;20423;-70
2024/01/23 08:52:43;;;;;;;17.75;4.47;;;;;;;5.02;83.02;101745.38;5033147;28;20203;-67
2024/01/23 08:56:14;;;;;;;17.92;3.80;;;;;;;5.03;83.26;101753.13;5033590;28;20087;-72
2024/01/23 08:59:42;;;;;;;128.93;82.72;;;;;;;5.06;82.48;101747.06;5053374;28;20407;-69
2024/01/23 09:03:01;;;;;;;34.40;17.98;;;;;;;5.26;81.74;101749.44;5053152;28;20103;-68
2024/01/23 09:06:05;;;;;;;21.98;8.07;;;;;;;5.52;79.60;101756.94;5053187;28;20583;-69
2024/01/23 09:09:10;;;;;;;23.15;4.72;;;;;;;5.60;79.34;101762.91;5051953;28;20048;-68
2024/01/23 09:12:22;;;;;;;24.92;7.57;;;;;;;5.62;79.44;101763.75;5052503;28;20068;-68
2024/01/23 09:15:34;;;;;;;24.40;3.83;;;;;;;5.72;78.64;101762.75;5052643;28;20088;-68
2024/01/23 09:18:44;;;;;;;23.92;6.18;;;;;;;5.73;78.37;101782.63;5052429;28;20566;-68
2024/01/23 09:21:54;;;;;;;20.23;3.65;;;;;;;5.77;78.02;101784.31;5050918;28;20102;-69
2024/01/23 09:24:59;;;;;;;22.83;3.72;;;;;;;5.87;77.72;101790.28;5052986;28;20053;-70
2024/01/23 09:28:04;;;;;;;16.27;3.45;;;;;;;5.90;77.00;101792.81;5052210;28;20120;-69
2024/01/23 09:31:10;;;;;;;18.75;4.05;;;;;;;5.93;77.08;101804.94;5051494;28;20147;-69
2024/01/23 09:34:14;;;;;;;16.23;3.80;;;;;;;6.23;80.25;101786.34;5052768;28;20055;-67
2024/01/23 09:37:18;;;;;;;18.65;3.92;;;;;;;7.33;72.48;101795.81;5052392;28;20066;-68
2024/01/23 09:40:29;;;;;;;13.40;2.92;;;;;;;6.44;74.12;101795.56;5050933;28;20071;-69
2024/01/23 09:43:43;;;;;;;18.17;3.42;;;;;;;6.31;74.87;101795.78;5052313;28;20095;-68
2024/01/23 09:46:52;;;;;;;21.20;4.00;;;;;;;6.27;74.21;101806.19;5052468;28;20092;-68
2024/01/23 09:50:02;;;;;;;18.98;3.60;;;;;;;6.34;74.17;101806.13;5051777;28;20048;-68
2024/01/23 09:53:09;;;;;;;16.08;3.58;;;;;;;6.39;74.00;101817.31;5049372;28;20505;-68
2024/01/23 09:56:15;;;;;;;16.50;4.10;;;;;;;6.43;73.55;101813.78;5052181;28;20085;-69
2024/01/23 09:59:20;;;;;;;18.25;3.72;;;;;;;6.48;74.02;101805.03;5046788;28;20052;-66
2024/01/23 10:02:32;;;;;;;19.95;3.42;;;;;;;6.51;73.85;101815.41;5052065;28;20505;-66
2024/01/23 10:05:51;;;;;;;18.98;4.05;;;;;;;6.59;73.40;101809.22;5051922;28;20098;-67
2024/01/23 10:08:59;;;;;;;22.50;4.35;;;;;;;6.68;73.14;101799.53;5051888;28;20127;-67
2024/01/23 10:12:08;;;;;;;21.13;4.53;;;;;;;6.72;72.89;101802.94;5051814;28;20056;-66
2024/01/23 10:15:18;;;;;;;18.27;4.38;;;;;;;6.87;72.80;101807.06;5051829;28;20118;-66
2024/01/23 10:18:25;;;;;;;22.38;5.25;;;;;;;6.94;72.18;101813.84;5051881;28;20047;-65
2024/01/23 10:21:30;;;;;;;18.13;3.38;;;;;;;6.96;71.92;101812.09;5050338;28;20056;-68
2024/01/23 10:24:41;;;;;;;17.33;4.90;;;;;;;7.06;72.18;101813.66;5051886;28;20048;-67
2024/01/23 10:27:50;;;;;;;21.40;4.50;;;;;;;7.08;72.07;101830.06;5051752;28;20127;-68
2024/01/23 10:30:56;;;;;;;17.10;3.33;;;;;;;7.08;71.80;101826.63;5051699;28;20102;-67
2024/01/23 10:34:00;;;;;;;21.33;6.43;;;;;;;7.12;70.92;101823.09;5051752;28;20060;-69
2024/01/23 10:37:05;;;;;;;16.52;4.22;;;;;;;7.92;73.48;101822.47;5051349;28;20086;-67
2024/01/23 10:40:15;;;;;;;14.88;4.00;;;;;;;8.29;69.54;101826.88;5051477;28;20102;-68
2024/01/23 10:43:20;;;;;;;15.63;4.00;;;;;;;7.78;67.57;101816.66;5051345;28;20063;-67
2024/01/23 10:46:25;;;;;;;20.73;4.68;;;;;;;7.41;68.66;101833.00;5051339;28;20055;-66
2024/01/23 10:49:30;;;;;;;15.70;3.67;;;;;;;7.35;69.55;101840.91;5051077;28;20044;-67
2024/01/23 10:52:39;;;;;;;13.80;3.55;;;;;;;7.28;69.28;101828.91;5051216;28;20097;-67
2024/01/23 10:55:49;;;;;;;20.23;4.95;;;;;;;7.29;68.53;101848.81;5051187;28;20564;-67
2024/01/23 10:59:08;;;;;;;22.83;3.80;;;;;;;7.29;69.63;101861.81;5050906;28;20142;-67
2024/01/23 11:02:41;;;;;;;15.98;3.58;;;;;;;7.38;68.54;101867.72;5051500;28;20094;-67
2024/01/23 11:05:52;;;;;;;16.40;4.13;;;;;;;7.44;68.71;101866.78;5051333;28;20044;-66
2024/01/23 11:09:11;;;;;;;20.00;4.55;;;;;;;7.49;67.57;101875.34;5049961;28;20102;-67
2024/01/23 11:12:33;;;;;;;26.80;5.32;;;;;;;7.42;67.49;101869.38;5049776;28;20114;-69
2024/01/23 11:15:38;;;;;;;20.55;4.90;;;;;;;7.37;67.57;101897.25;5050666;28;20094;-68
2024/01/23 11:18:42;;;;;;;15.45;4.65;;;;;;;8.44;68.20;101894.34;5049955;28;20052;-69
2024/01/23 11:21:46;;;;;;;17.27;4.72;;;;;;;8.13;63.49;101862.81;5050413;28;20088;-66
2024/01/23 11:24:49;;;;;;;20.65;6.63;;;;;;;7.62;66.00;101883.78;5050896;28;20048;-66
2024/01/23 11:27:53;;;;;;;20.48;5.32;;;;;;;7.51;66.26;101860.56;5050937;28;20048;-66
2024/01/23 11:31:12;;;;;;;18.90;4.25;;;;;;;7.48;65.47;101868.41;5051452;28;20124;-67
2024/01/23 11:34:23;;;;;;;19.02;3.60;;;;;;;7.53;65.75;101853.59;5054597;28;20136;-67
2024/01/23 11:37:42;;;;;;;17.30;4.75;;;;;;;7.54;65.99;101847.50;5054686;28;20513;-67
2024/01/23 11:40:56;;;;;;;18.98;4.95;;;;;;;7.57;65.31;101836.16;5054808;28;20114;-68
2024/01/23 11:44:03;;;;;;;22.05;4.13;;;;;;;7.86;63.87;101849.47;5054737;28;20645;-67
2024/01/23 11:47:09;;;;;;;19.23;4.20;;;;;;;7.80;64.77;101843.53;5054619;28;20051;-67
2024/01/23 11:50:16;;;;;;;18.40;3.30;;;;;;;7.68;64.80;101842.00;5054279;28;20040;-67
2024/01/23 11:53:25;;;;;;;19.30;4.03;;;;;;;7.73;64.92;101829.78;5054507;28;20506;-67
2024/01/23 11:56:33;;;;;;;14.60;3.70;;;;;;;7.72;64.96;101828.03;5054571;28;20099;-67
2024/01/23 11:59:41;;;;;;;18.38;4.63;;;;;;;7.65;65.08;101832.50;5054508;28;20417;-67
2024/01/23 12:02:47;;;;;;;19.38;4.43;;;;;;;7.67;65.53;101827.28;5054496;28;20040;-67
2024/01/23 12:05:52;;;;;;;20.73;4.10;;;;;;;7.78;65.88;101825.31;5054205;28;20039;-66
2024/01/23 12:08:58;;;;;;;16.23;3.60;;;;;;;7.85;66.13;101826.09;5054227;28;20068;-66
2024/01/23 12:12:06;;;;;;;18.63;3.10;;;;;;;7.91;64.41;101842.44;5053953;28;20399;-66
2024/01/23 12:15:14;;;;;;;20.67;4.35;;;;;;;8.09;65.13;101841.19;5054022;28;20071;-66
2024/01/23 12:18:26;;;;;;;16.52;3.80;;;;;;;7.97;63.84;101825.81;5054255;28;20047;-67
2024/01/23 12:21:31;;;;;;;14.95;3.58;;;;;;;8.00;63.34;101815.31;5053432;28;20556;-67
2024/01/23 12:24:37;;;;;;;;;;;;;;;8.00;63.43;101815.31;5054585;28;20075;-67
2024/01/23 12:27:48;;;;;;;16.63;3.65;;;;;;;8.05;63.09;101797.88;5053868;28;19966;-67
2024/01/23 12:30:59;;;;;;;18.58;3.75;;;;;;;8.02;62.88;101797.94;5054069;28;20044;-67
2024/01/23 12:34:12;;;;;;;19.80;5.55;;;;;;;7.98;63.63;101788.47;5053633;28;20099;-67
2024/01/23 12:37:33;;;;;;;22.33;6.70;;;;;;;8.19;63.41;101773.25;5053709;28;20155;-67
2024/01/23 12:40:42;;;;;;;18.80;4.03;;;;;;;8.21;63.37;101776.69;5053300;28;20064;-67
2024/01/23 12:43:46;;;;;;;25.98;5.15;;;;;;;8.03;63.40;101783.16;5051836;28;20052;-67
2024/01/23 12:46:52;;;;;;;19.17;5.03;;;;;;;8.00;63.51;101815.31;5053854;28;20056;-67
2024/01/23 12:49:58;;;;;;;18.33;6.28;;;;;;;8.06;63.88;101794.34;5033477;28;20435;-68
2024/01/23 12:53:11;;;;;;;18.17;4.95;;;;;;;8.11;63.76;101792.53;5033414;28;20192;-68
2024/01/23 12:56:19;;;;;;;;;;;;;;;8.18;63.48;101788.03;5034067;28;20103;-67
2024/01/23 12:59:26;;;;;;;42.53;18.92;;;;;;;8.17;63.02;101796.75;5033578;28;19923;-67
2024/01/23 13:02:36;;;;;;;17.98;5.22;;;;;;;8.08;63.02;101792.59;5033312;28;20040;-68
2024/01/23 13:05:45;;;;;;;20.73;5.72;;;;;;;8.05;63.91;101794.41;5033231;28;20115;-68
2024/01/23 13:08:51;;;;;;;17.10;3.90;;;;;;;8.02;64.22;101777.09;5033159;28;20103;-67
2024/01/23 13:11:59;;;;;;;20.90;4.68;;;;;;;8.12;64.12;101768.19;5032680;28;20095;-67
2024/01/23 13:15:05;;;;;;;17.42;4.38;;;;;;;8.09;64.04;101763.03;5033510;28;20056;-67
2024/01/23 13:18:11;;;;;;;19.08;3.60;;;;;;;8.11;64.70;101760.41;5033254;28;20056;-67
2024/01/23 13:21:22;;;;;;;13.55;3.90;;;;;;;8.12;65.14;101730.84;5032810;28;20041;-66
2024/01/23 13:24:30;;;;;;;19.33;3.95;;;;;;;8.14;65.24;101727.31;5032984;28;20103;-66
2024/01/23 13:27:35;;;;;;;17.90;3.97;;;;;;;8.05;66.20;101732.75;5032760;28;20131;-66
2024/01/23 13:30:41;;;;;;;16.08;4.40;;;;;;;8.02;65.98;101748.44;5032612;28;20095;-66
2024/01/23 13:33:44;;;;;;;17.88;4.05;;;;;;;8.07;66.00;101745.72;5032604;28;20052;-66
2024/01/23 13:36:50;;;;;;;20.27;4.55;;;;;;;8.08;66.41;101763.94;5031473;28;20052;-67
2024/01/23 13:39:59;;;;;;;15.40;3.13;;;;;;;7.99;66.86;101756.31;5032344;28;20464;-67
2024/01/23 13:43:11;;;;;;;20.42;4.45;;;;;;;7.99;67.12;101766.72;5032672;28;20621;-67
2024/01/23 13:46:21;;;;;;;21.63;4.40;;;;;;;8.04;67.27;101767.50;5032763;28;20514;-66
2024/01/23 13:49:25;;;;;;;18.60;3.90;;;;;;;7.93;67.44;101761.66;5032319;28;20052;-67
2024/01/23 13:52:32;;;;;;;17.90;4.45;;;;;;;7.97;67.95;101762.44;5032135;28;20052;-66
2024/01/23 13:55:42;;;;;;;18.08;4.45;;;;;;;7.94;68.10;101765.97;5031779;28;20064;-67
2024/01/23 13:58:57;;;;;;;18.90;4.65;;;;;;;7.90;68.06;101752.16;5031310;28;20558;-66
2024/01/23 14:02:05;;;;;;;18.60;4.60;;;;;;;7.91;68.32;101747.78;5031463;28;20040;-67
2024/01/23 14:05:14;;;;;;;14.35;4.43;;;;;;;7.96;68.22;101739.91;5032188;28;20049;-66
2024/01/23 14:08:29;;;;;;;18.60;3.88;;;;;;;8.01;68.20;101743.25;5031867;28;20088;-66
2024/01/23 14:11:45;;;;;;;22.60;6.45;;;;;;;8.03;68.20;101742.31;5031977;28;20057;-66
2024/01/23 14:14:51;;;;;;;16.38;4.10;;;;;;;8.07;67.97;101738.78;5031669;28;20466;-66
2024/01/23 14:18:07;;;;;;;17.33;4.80;;;;;;;8.02;68.40;101735.41;5030835;28;20187;-66
2024/01/23 14:21:34;;;;;;;23.45;5.82;;;;;;;8.16;67.57;101738.56;5041618;28;20048;-67
2024/01/23 14:24:47;;;;;;;24.00;4.38;;;;;;;8.12;68.55;101736.06;5031940;28;20052;-66
2024/01/23 14:28:03;;;;;;;22.02;4.45;;;;;;;8.11;68.01;101750.84;5030806;28;20053;-66
2024/01/23 14:31:32;;;;;;;20.40;4.90;;;;;;;8.21;68.14;101756.69;5030957;28;20407;-66
2024/01/23 14:35:03;;;;;;;71.18;33.42;;;;;;;8.24;68.64;101759.22;5031389;28;20463;-66
2024/01/23 14:38:36;;;;;;;25.95;6.30;;;;;;;8.26;68.62;101760.03;5031804;28;20067;-67
2024/01/23 14:42:05;;;;;;;17.15;4.07;;;;;;;8.12;68.81;101762.97;5031477;28;20056;-67
2024/01/23 14:45:32;;;;;;;29.10;7.40;;;;;;;8.10;70.04;101762.16;5052059;28;20076;-67
2024/01/23 14:49:05;;;;;;;20.77;4.55;;;;;;;8.10;70.20;101751.75;5031464;28;20502;-66
2024/01/23 14:52:29;;;;;;;20.95;4.82;;;;;;;8.02;71.03;101752.78;5031220;28;20180;-66
2024/01/23 14:55:44;;;;;;;18.77;3.65;;;;;;;8.00;70.83;101744.16;5031419;28;20051;-66
2024/01/23 14:58:47;;;;;;;;;;;;;;;7.97;71.44;101742.47;5031465;28;20090;-66
2024/01/23 15:01:51;;;;;;;23.92;5.25;;;;;;;7.92;71.68;101739.13;5031190;28;19935;-66
2024/01/23 15:04:54;;;;;;;14.30;3.80;;;;;;;7.94;71.51;101747.72;5031228;28;20096;-66
2024/01/23 15:07:58;;;;;;;24.52;4.53;;;;;;;7.86;72.10;101740.09;5031348;28;20053;-66
2024/01/23 15:11:07;;;;;;;;;;;;;;;7.95;72.03;101739.06;5031566;28;20462;-66